createdAt,value
2018-06-11T00:00:49.818Z,17.0
2018-06-11T00:02:50.165Z,17.4
2018-06-11T00:04:50.503Z,17.4
2018-06-11T00:06:49.786Z,17.1
2018-06-11T00:08:49.923Z,17.1
2018-06-11T00:10:50.128Z,18.1
2018-06-11T00:12:50.295Z,17.5
2018-06-11T00:14:50.506Z,17.5
2018-06-11T00:16:49.852Z,17.8
2018-06-11T00:18:49.989Z,17.6
2018-06-11T00:20:50.182Z,17.6
2018-06-11T00:22:49.542Z,18.0
2018-06-11T00:24:49.658Z,18.2
2018-06-11T00:26:49.990Z,18.1
2018-06-11T00:28:50.161Z,17.7
2018-06-11T00:30:50.413Z,17.4
2018-06-11T00:32:49.684Z,17.4
2018-06-11T00:34:50.228Z,17.6
2018-06-11T00:36:50.461Z,17.3
2018-06-11T00:38:49.716Z,18.4
2018-06-11T00:40:49.832Z,18.0
2018-06-11T00:42:49.975Z,18.0
2018-06-11T00:44:50.147Z,18.3
2018-06-11T00:46:50.414Z,18.3
2018-06-11T00:48:49.552Z,18.1
2018-06-11T00:50:49.669Z,18.7
2018-06-11T00:52:50.116Z,18.7
2018-06-11T00:54:50.356Z,17.9
2018-06-11T00:56:49.788Z,17.8
2018-06-11T00:58:49.924Z,17.8
2018-06-11T01:00:50.126Z,17.9
2018-06-11T01:02:50.275Z,18.1
2018-06-11T01:04:49.567Z,17.9
2018-06-11T01:06:49.875Z,17.2
2018-06-11T01:08:50.052Z,18.0
2018-06-11T01:10:50.198Z,18.0
2018-06-11T01:12:50.343Z,18.9
2018-06-11T01:14:49.535Z,18.8
2018-06-11T01:16:49.778Z,18.4
2018-06-11T01:18:49.916Z,18.0
2018-06-11T01:20:50.121Z,18.0
2018-06-11T01:22:50.341Z,18.9
2018-06-11T01:24:50.481Z,18.5
2018-06-11T01:26:49.761Z,18.1
2018-06-11T01:28:49.868Z,18.1
2018-06-11T01:30:50.017Z,18.2
2018-06-11T01:32:50.196Z,19.1
2018-06-11T01:34:49.537Z,19.1
2018-06-11T01:36:49.831Z,19.0
2018-06-11T01:38:50.022Z,18.9
2018-06-11T01:40:50.176Z,18.9
2018-06-11T01:42:50.401Z,18.5
2018-06-11T01:44:49.591Z,19.2
2018-06-11T01:46:49.908Z,19.2
2018-06-11T01:48:50.085Z,19.1
2018-06-11T01:50:50.268Z,19.4
2018-06-11T01:52:50.459Z,19.4
2018-06-11T01:54:49.652Z,20.2
2018-06-11T01:56:49.952Z,18.8
2018-06-11T01:58:50.205Z,19.1
2018-06-11T02:00:50.389Z,18.3
2018-06-11T02:02:50.507Z,18.3
2018-06-11T02:04:49.881Z,18.0
2018-06-11T02:06:50.142Z,18.1
2018-06-11T02:08:50.215Z,18.1
2018-06-11T02:10:50.327Z,17.6
2018-06-11T02:12:49.572Z,18.3
2018-06-11T02:14:49.754Z,18.3
2018-06-11T02:16:50.097Z,18.3
2018-06-11T02:18:50.286Z,18.0
2018-06-11T02:20:50.394Z,17.9
2018-06-11T02:22:50.497Z,18.3
2018-06-11T02:24:49.736Z,17.4
2018-06-11T02:26:50.019Z,18.1
2018-06-11T02:28:50.188Z,18.1
2018-06-11T02:30:50.360Z,17.9
2018-06-11T02:32:49.530Z,17.9
2018-06-11T02:34:49.962Z,17.9
2018-06-11T02:36:50.296Z,17.2
2018-06-11T02:38:50.422Z,17.2
2018-06-11T02:40:49.545Z,17.2
2018-06-11T02:42:49.738Z,18.0
2018-06-11T02:44:49.886Z,17.5
2018-06-11T02:46:50.166Z,17.5
2018-06-11T02:48:50.331Z,17.7
2018-06-11T02:50:50.482Z,17.7
2018-06-11T02:52:49.679Z,17.6
2018-06-11T02:54:49.847Z,17.6
2018-06-11T02:56:50.081Z,17.7
2018-06-11T02:58:50.218Z,17.7
2018-06-11T03:00:50.347Z,17.7
2018-06-11T03:02:50.469Z,20.0
2018-06-11T03:04:49.814Z,20.1
2018-06-11T03:06:50.147Z,20.1
2018-06-11T03:08:50.247Z,20.0
2018-06-11T03:10:50.371Z,20.5
2018-06-11T03:12:50.509Z,19.8
2018-06-11T03:14:49.687Z,20.3
2018-06-11T03:16:49.943Z,20.3
2018-06-11T03:18:50.211Z,20.8
2018-06-11T03:20:50.367Z,21.3
2018-06-11T03:22:50.500Z,22.4
2018-06-11T03:24:49.631Z,22.4
2018-06-11T03:26:49.934Z,21.5
2018-06-11T03:28:50.090Z,24.3
2018-06-11T03:30:50.212Z,25.9
2018-06-11T03:32:50.428Z,24.3
2018-06-11T03:34:49.733Z,24.3
2018-06-11T03:36:50.007Z,24.7
2018-06-11T03:38:50.193Z,23.4
2018-06-11T03:40:50.358Z,23.4
2018-06-11T03:42:49.552Z,24.1
2018-06-11T03:44:49.667Z,24.1
2018-06-11T03:46:49.882Z,24.1
2018-06-11T03:48:50.144Z,23.5
2018-06-11T03:50:50.254Z,25.2
2018-06-11T03:52:50.557Z,25.2
2018-06-11T03:54:49.915Z,25.2
2018-06-11T03:56:50.201Z,24.5
2018-06-11T03:58:50.336Z,23.4
2018-06-11T04:00:50.631Z,23.4
2018-06-11T04:02:49.791Z,26.1
2018-06-11T04:04:50.211Z,26.1
2018-06-11T04:06:50.505Z,26.1
2018-06-11T04:08:49.630Z,24.2
2018-06-11T04:10:50.017Z,24.3
2018-06-11T04:12:49.894Z,23.9
2018-06-11T04:14:50.072Z,23.9
2018-06-11T04:16:50.366Z,24.6
2018-06-11T04:18:49.532Z,24.4
2018-06-11T04:20:49.681Z,24.0
2018-06-11T04:22:49.828Z,24.0
2018-06-11T04:24:50.021Z,26.0
2018-06-11T04:26:49.721Z,26.0
2018-06-11T04:28:49.907Z,25.3
2018-06-11T04:30:50.104Z,24.0
2018-06-11T04:32:50.216Z,24.0
2018-06-11T04:34:49.609Z,24.0
2018-06-11T04:36:49.891Z,23.8
2018-06-11T04:38:50.177Z,23.0
2018-06-11T04:40:50.392Z,21.9
2018-06-11T04:42:50.589Z,21.9
2018-06-11T04:44:49.761Z,22.6
2018-06-11T04:46:50.032Z,20.4
2018-06-11T04:48:50.196Z,20.4
2018-06-11T04:50:50.355Z,20.6
2018-06-11T04:52:50.483Z,20.6
2018-06-11T04:54:49.618Z,17.7
2018-06-11T04:56:49.870Z,16.8
2018-06-11T04:58:50.041Z,15.9
2018-06-11T05:00:50.239Z,16.4
2018-06-11T05:02:50.328Z,16.4
2018-06-11T05:04:49.649Z,16.2
2018-06-11T05:06:49.997Z,15.5
2018-06-11T05:08:50.173Z,15.6
2018-06-11T05:10:50.358Z,16.1
2018-06-11T05:12:49.513Z,16.1
2018-06-11T05:14:49.621Z,15.7
2018-06-11T05:16:49.886Z,15.0
2018-06-11T05:18:50.019Z,15.1
2018-06-11T05:20:50.185Z,14.4
2018-06-11T05:22:50.319Z,14.4
2018-06-11T05:24:50.508Z,14.5
2018-06-11T05:26:49.811Z,13.8
2018-06-11T05:28:50.073Z,13.1
2018-06-11T05:30:49.773Z,13.0
2018-06-11T05:32:49.892Z,13.0
2018-06-11T05:34:50.344Z,12.8
2018-06-11T05:36:50.514Z,12.3
2018-06-11T05:38:49.630Z,12.3
2018-06-11T05:40:49.763Z,14.4
2018-06-11T05:42:50.047Z,14.4
2018-06-11T05:44:50.214Z,14.4
2018-06-11T05:46:50.499Z,14.3
2018-06-11T05:48:49.643Z,14.1
2018-06-11T05:50:49.825Z,14.1
2018-06-11T05:52:50.119Z,14.5
2018-06-11T05:54:50.284Z,15.0
2018-06-11T05:56:49.668Z,15.4
2018-06-11T05:58:49.884Z,15.0
2018-06-11T06:00:50.033Z,15.0
2018-06-11T06:02:50.229Z,14.7
2018-06-11T06:04:50.478Z,14.1
2018-06-11T06:06:49.792Z,13.9
2018-06-11T06:08:50.080Z,14.6
2018-06-11T06:10:50.226Z,14.6
2018-06-11T06:12:50.376Z,14.2
2018-06-11T06:14:49.546Z,13.8
2018-06-11T06:16:49.821Z,14.0
2018-06-11T06:18:50.009Z,14.0
2018-06-11T06:20:50.217Z,13.4
2018-06-11T06:22:50.359Z,14.3
2018-06-11T06:24:49.538Z,13.8
2018-06-11T06:26:50.068Z,13.9
2018-06-11T06:28:50.433Z,13.9
2018-06-11T06:30:49.594Z,13.4
2018-06-11T06:32:49.723Z,14.4
2018-06-11T06:34:50.409Z,14.0
2018-06-11T06:36:49.783Z,14.0
2018-06-11T06:38:50.080Z,14.3
2018-06-11T06:40:50.240Z,14.6
2018-06-11T06:42:50.476Z,14.9
2018-06-11T06:44:49.595Z,14.7
2018-06-11T06:46:49.990Z,14.7
2018-06-11T06:48:50.183Z,14.1
2018-06-11T06:50:50.344Z,15.1
2018-06-11T06:52:49.537Z,14.8
2018-06-11T06:54:49.694Z,14.4
2018-06-11T06:56:49.953Z,14.3
2018-06-11T06:58:50.126Z,14.3
2018-06-11T07:00:50.320Z,14.1
2018-06-11T07:02:50.481Z,14.5
2018-06-11T07:04:49.847Z,14.6
2018-06-11T07:06:50.138Z,14.6
2018-06-11T07:08:50.501Z,15.0
2018-06-11T07:10:49.689Z,15.1
2018-06-11T07:12:49.853Z,15.3
2018-06-11T07:14:50.111Z,14.7
2018-06-11T07:16:50.375Z,14.7
2018-06-11T07:18:49.605Z,14.5
2018-06-11T07:20:49.811Z,14.1
2018-06-11T07:22:50.055Z,14.1
2018-06-11T07:24:50.235Z,14.1
2018-06-11T07:26:50.531Z,14.6
2018-06-11T07:28:49.763Z,14.8
2018-06-11T07:30:50.007Z,14.2
2018-06-11T07:32:50.200Z,14.3
2018-06-11T07:34:49.616Z,14.6
2018-06-11T07:36:49.824Z,14.6
2018-06-11T07:38:50.478Z,14.2
2018-06-11T07:40:49.633Z,14.2
2018-06-11T07:42:49.752Z,13.9
2018-06-11T07:44:49.933Z,13.9
2018-06-11T07:46:50.248Z,14.3
2018-06-11T07:48:50.400Z,13.5
2018-06-11T07:50:49.597Z,14.6
2018-06-11T07:52:49.997Z,13.9
2018-06-11T07:54:50.177Z,13.9
2018-06-11T07:56:50.556Z,13.8
2018-06-11T07:58:49.758Z,13.2
2018-06-11T08:00:49.903Z,12.7
2018-06-11T08:02:50.038Z,12.7
2018-06-11T08:04:50.447Z,12.9
2018-06-11T08:06:49.772Z,11.9
2018-06-11T08:08:49.964Z,11.9
2018-06-11T08:10:50.174Z,11.9
2018-06-11T08:12:50.466Z,11.8
2018-06-11T08:14:49.581Z,11.8
2018-06-11T08:16:49.805Z,11.3
2018-06-11T08:18:50.040Z,10.9
2018-06-11T08:20:50.242Z,11.0
2018-06-11T08:22:49.717Z,10.9
2018-06-11T08:24:50.092Z,10.9
2018-06-11T08:26:50.465Z,11.1
2018-06-11T08:28:49.630Z,12.4
2018-06-11T08:30:49.781Z,12.4
2018-06-11T08:32:50.018Z,11.1
2018-06-11T08:34:50.519Z,11.1
2018-06-11T08:36:49.784Z,10.6
2018-06-11T08:38:49.878Z,12.4
2018-06-11T08:40:50.012Z,12.4
2018-06-11T08:42:50.191Z,11.7
2018-06-11T08:44:50.323Z,11.2
2018-06-11T08:46:49.700Z,11.3
2018-06-11T08:48:49.838Z,12.0
2018-06-11T08:50:50.005Z,11.2
2018-06-11T08:52:50.341Z,11.2
2018-06-11T08:54:49.596Z,10.8
2018-06-11T08:56:49.848Z,10.4
2018-06-11T08:58:49.981Z,10.6
2018-06-11T09:00:50.173Z,10.6
2018-06-11T09:02:50.388Z,11.6
2018-06-11T09:04:49.861Z,34.9
2018-06-11T09:06:50.172Z,27.6
2018-06-11T09:08:50.281Z,9.9
2018-06-11T09:10:50.446Z,9.9
2018-06-11T09:12:49.574Z,10.5
2018-06-11T09:14:49.779Z,9.0
2018-06-11T09:16:49.997Z,9.0
2018-06-11T09:18:50.157Z,9.0
2018-06-11T09:20:50.325Z,7.8
2018-06-11T09:22:49.665Z,7.8
2018-06-11T09:24:49.861Z,10.6
2018-06-11T09:26:50.082Z,9.5
2018-06-11T09:28:50.241Z,9.7
2018-06-11T09:30:50.420Z,9.7
2018-06-11T09:32:49.555Z,8.9
2018-06-11T09:34:49.925Z,8.8
2018-06-11T09:36:50.259Z,9.0
2018-06-11T09:38:50.388Z,9.2
2018-06-11T09:40:50.505Z,9.2
2018-06-11T09:42:49.631Z,8.7
2018-06-11T09:44:49.843Z,7.9
2018-06-11T09:46:50.112Z,8.5
2018-06-11T09:48:50.253Z,8.3
2018-06-11T09:50:50.414Z,8.3
2018-06-11T09:52:49.607Z,8.7
2018-06-11T09:54:49.758Z,7.8
2018-06-11T09:56:49.954Z,8.0
2018-06-11T09:58:50.130Z,7.8
2018-06-11T10:00:50.277Z,7.8
2018-06-11T10:02:50.385Z,7.7
2018-06-11T10:04:49.689Z,7.9
2018-06-11T10:06:49.879Z,8.3
2018-06-11T10:08:49.973Z,8.3
2018-06-11T10:10:50.093Z,8.0
2018-06-11T10:12:50.220Z,8.1
2018-06-11T10:14:50.404Z,8.5
2018-06-11T10:16:49.726Z,7.8
2018-06-11T10:18:49.887Z,7.8
2018-06-11T10:20:50.038Z,8.6
2018-06-11T10:22:50.223Z,8.9
2018-06-11T10:24:50.454Z,9.6
2018-06-11T10:26:49.933Z,9.6
2018-06-11T10:28:50.035Z,8.6
2018-06-11T10:30:50.180Z,8.6
2018-06-11T10:32:50.335Z,8.3
2018-06-11T10:34:49.702Z,9.0
2018-06-11T10:36:49.996Z,7.8
2018-06-11T10:38:50.255Z,7.8
2018-06-11T10:40:50.480Z,6.0
2018-06-11T10:42:49.760Z,4.8
2018-06-11T10:44:49.988Z,4.6
2018-06-11T10:46:50.338Z,4.2
2018-06-11T10:48:50.506Z,4.2
2018-06-11T10:50:49.659Z,4.4
2018-06-11T10:52:49.764Z,3.4
2018-06-11T10:54:49.902Z,3.4
2018-06-11T10:56:50.117Z,3.6
2018-06-11T10:58:50.262Z,3.3
2018-06-11T11:00:50.470Z,3.4
2018-06-11T11:02:49.643Z,3.3
2018-06-11T11:04:50.034Z,2.6
2018-06-11T11:06:50.370Z,2.9
2018-06-11T11:08:50.619Z,2.9
2018-06-11T11:10:50.437Z,2.9
2018-06-11T11:12:49.585Z,3.3
2018-06-11T11:14:49.791Z,3.2
2018-06-11T11:16:50.057Z,3.2
2018-06-11T11:18:50.241Z,3.3
2018-06-11T11:20:50.403Z,3.3
2018-06-11T11:22:50.505Z,3.3
2018-06-11T11:24:49.598Z,3.1
2018-06-11T11:26:49.804Z,3.1
2018-06-11T11:28:49.942Z,3.5
2018-06-11T11:30:50.072Z,3.8
2018-06-11T11:32:50.257Z,3.5
2018-06-11T11:34:49.752Z,3.5
2018-06-11T11:36:50.105Z,3.5
2018-06-11T11:38:50.256Z,3.7
2018-06-11T11:40:50.483Z,3.8
2018-06-11T11:42:49.599Z,3.8
2018-06-11T11:44:49.733Z,4.1
2018-06-11T11:46:50.141Z,4.1
2018-06-11T11:48:50.280Z,4.3
2018-06-11T11:50:50.417Z,4.6
2018-06-11T11:52:49.651Z,5.3
2018-06-11T11:54:49.896Z,5.3
2018-06-11T11:56:50.261Z,5.3
2018-06-11T11:58:50.455Z,5.5
2018-06-11T12:00:49.566Z,7.0
2018-06-11T12:02:49.731Z,7.1
2018-06-11T12:04:50.196Z,6.9
2018-06-11T12:06:50.382Z,6.9
2018-06-11T12:08:49.598Z,7.0
2018-06-11T12:10:49.758Z,6.8
2018-06-11T12:12:49.979Z,6.6
2018-06-11T12:14:50.120Z,6.6
2018-06-11T12:16:50.488Z,5.9
2018-06-11T12:18:49.680Z,4.8
2018-06-11T12:20:49.875Z,4.6
2018-06-11T12:22:50.025Z,4.7
2018-06-11T12:24:50.178Z,4.7
2018-06-11T12:26:50.472Z,4.3
2018-06-11T12:28:49.593Z,4.0
2018-06-11T12:30:49.812Z,4.3
2018-06-11T12:32:50.028Z,5.3
2018-06-11T12:34:50.396Z,5.3
2018-06-11T12:36:49.625Z,4.6
2018-06-11T12:38:49.791Z,4.8
2018-06-11T12:40:49.934Z,4.5
2018-06-11T12:42:50.056Z,4.5
2018-06-11T12:44:50.330Z,4.7
2018-06-11T12:46:49.629Z,4.7
2018-06-11T12:48:49.834Z,4.7
2018-06-11T12:50:49.949Z,5.0
2018-06-11T12:52:50.291Z,5.0
2018-06-11T12:54:50.146Z,4.6
2018-06-11T12:56:50.466Z,4.6
2018-06-11T12:58:49.642Z,4.2
2018-06-11T13:00:49.806Z,4.5
2018-06-11T13:02:50.042Z,4.5
2018-06-11T13:04:50.421Z,4.7
2018-06-11T13:06:49.697Z,4.5
2018-06-11T13:08:49.826Z,4.5
2018-06-11T13:10:50.021Z,5.7
2018-06-11T13:12:50.171Z,5.7
2018-06-11T13:14:50.283Z,4.3
2018-06-11T13:16:49.642Z,4.3
2018-06-11T13:18:49.820Z,5.2
2018-06-11T13:20:50.382Z,4.6
2018-06-11T13:22:49.540Z,4.6
2018-06-11T13:24:49.743Z,4.6
2018-06-11T13:26:50.019Z,4.5
2018-06-11T13:28:50.241Z,4.5
2018-06-11T13:30:50.399Z,6.0
2018-06-11T13:32:49.520Z,6.0
2018-06-11T13:34:49.816Z,6.0
2018-06-11T13:36:50.113Z,4.6
2018-06-11T13:38:50.239Z,4.3
2018-06-11T13:40:50.378Z,4.9
2018-06-11T13:42:50.510Z,4.9
2018-06-11T13:44:50.200Z,4.3
2018-06-11T13:46:49.596Z,4.6
2018-06-11T13:48:49.782Z,4.6
2018-06-11T13:50:49.953Z,4.6
2018-06-11T13:52:50.135Z,4.3
2018-06-11T13:54:50.295Z,4.8
2018-06-11T13:56:50.528Z,5.0
2018-06-11T13:58:49.722Z,5.0
2018-06-11T14:00:49.948Z,5.3
2018-06-11T14:02:50.081Z,5.4
2018-06-11T14:04:49.547Z,5.6
2018-06-11T14:06:49.810Z,5.5
2018-06-11T14:08:49.971Z,5.9
2018-06-11T14:10:50.103Z,5.9
2018-06-11T14:12:50.276Z,5.6
2018-06-11T14:14:50.447Z,5.8
2018-06-11T14:16:50.035Z,6.4
2018-06-11T14:18:49.628Z,6.6
2018-06-11T14:20:49.990Z,6.6
2018-06-11T14:22:50.169Z,7.9
2018-06-11T14:24:50.280Z,13.0
2018-06-11T14:26:49.545Z,12.0
2018-06-11T14:28:49.611Z,12.0
2018-06-11T14:30:49.704Z,11.7
2018-06-11T14:32:50.032Z,13.3
2018-06-11T14:34:50.365Z,14.1
2018-06-11T14:36:49.727Z,12.8
2018-06-11T14:38:49.863Z,14.0
2018-06-11T14:40:50.046Z,14.0
2018-06-11T14:42:50.146Z,14.3
2018-06-11T14:44:50.262Z,16.5
2018-06-11T14:46:49.545Z,15.6
2018-06-11T14:48:49.681Z,14.9
2018-06-11T14:50:49.870Z,14.9
2018-06-11T14:52:49.976Z,13.9
2018-06-11T14:54:50.062Z,14.5
2018-06-11T14:56:50.266Z,14.3
2018-06-11T14:58:50.395Z,14.3
2018-06-11T15:00:49.565Z,14.5
2018-06-11T15:02:49.764Z,15.4
2018-06-11T15:04:50.109Z,16.4
2018-06-11T15:06:50.302Z,16.4
2018-06-11T15:08:50.423Z,16.9
2018-06-11T15:10:49.649Z,17.4
2018-06-11T15:12:49.914Z,18.3
2018-06-11T15:14:50.037Z,15.1
2018-06-11T15:16:50.318Z,15.1
2018-06-11T15:18:50.437Z,14.3
2018-06-11T15:20:49.567Z,13.2
2018-06-11T15:22:49.801Z,12.9
2018-06-11T15:24:50.499Z,13.2
2018-06-11T15:26:49.662Z,13.2
2018-06-11T15:28:49.817Z,13.2
2018-06-11T15:30:50.034Z,13.4
2018-06-11T15:32:50.145Z,13.4
2018-06-11T15:34:49.550Z,12.2
2018-06-11T15:36:49.779Z,12.2
2018-06-11T15:38:49.892Z,12.3
2018-06-11T15:40:50.093Z,11.6
2018-06-11T15:42:50.270Z,13.0
2018-06-11T15:44:50.454Z,13.0
2018-06-11T15:46:49.766Z,12.1
2018-06-11T15:48:49.943Z,11.7
2018-06-11T15:50:50.071Z,12.2
2018-06-11T15:52:50.219Z,12.2
2018-06-11T15:54:50.396Z,11.8
2018-06-11T15:56:49.857Z,11.8
2018-06-11T15:58:50.476Z,11.5
2018-06-11T16:00:49.626Z,12.3
2018-06-11T16:02:49.802Z,12.1
2018-06-11T16:04:50.164Z,12.1
2018-06-11T16:06:50.540Z,13.4
2018-06-11T16:08:49.762Z,14.4
2018-06-11T16:10:49.970Z,13.2
2018-06-11T16:12:50.096Z,14.5
2018-06-11T16:14:50.290Z,15.1
2018-06-11T16:16:49.601Z,15.1
2018-06-11T16:18:49.718Z,14.9
2018-06-11T16:20:49.914Z,14.9
2018-06-11T16:22:50.084Z,20.4
2018-06-11T16:24:50.283Z,20.4
2018-06-11T16:26:49.556Z,21.6
2018-06-11T16:28:49.768Z,20.2
2018-06-11T16:30:49.934Z,18.7
2018-06-11T16:32:50.188Z,22.7
2018-06-11T16:34:49.688Z,22.7
2018-06-11T16:36:49.972Z,22.0
2018-06-11T16:38:50.209Z,23.2
2018-06-11T16:40:50.452Z,23.2
2018-06-11T16:42:49.592Z,23.2
2018-06-11T16:44:49.699Z,23.2
2018-06-11T16:46:49.993Z,24.5
2018-06-11T16:48:50.248Z,25.4
2018-06-11T16:50:49.793Z,22.7
2018-06-11T16:52:49.946Z,22.7
2018-06-11T16:54:50.055Z,23.6
2018-06-11T16:56:50.314Z,25.0
2018-06-11T16:58:50.438Z,26.9
2018-06-11T17:00:49.580Z,28.8
2018-06-11T17:02:49.722Z,28.8
2018-06-11T17:04:50.005Z,35.9
2018-06-11T17:06:50.253Z,37.1
2018-06-11T17:08:50.400Z,31.9
2018-06-11T17:10:49.541Z,31.9
2018-06-11T17:12:49.753Z,28.7
2018-06-11T17:14:49.902Z,28.7
2018-06-11T17:16:50.213Z,27.3
2018-06-11T17:18:50.385Z,31.2
2018-06-11T17:20:50.496Z,31.2
2018-06-11T17:22:49.619Z,30.6
2018-06-11T17:24:49.752Z,32.1
2018-06-11T17:26:50.083Z,31.9
2018-06-11T17:28:50.273Z,32.9
2018-06-11T17:30:50.453Z,32.8
2018-06-11T17:32:49.569Z,32.8
2018-06-11T17:34:49.853Z,38.6
2018-06-11T17:36:50.157Z,41.7
2018-06-11T17:38:50.282Z,41.7
2018-06-11T17:40:50.428Z,43.6
2018-06-11T17:42:49.590Z,43.6
2018-06-11T17:44:49.759Z,39.9
2018-06-11T17:46:50.172Z,39.1
2018-06-11T17:48:50.426Z,38.4
2018-06-11T17:50:49.657Z,38.1
2018-06-11T17:52:49.962Z,38.1
2018-06-11T17:54:50.186Z,42.1
2018-06-11T17:56:50.451Z,42.6
2018-06-11T17:58:49.626Z,45.9
2018-06-11T18:00:49.797Z,45.9
2018-06-11T18:02:49.953Z,48.6
2018-06-11T18:04:50.372Z,47.0
2018-06-11T18:06:49.656Z,47.0
2018-06-11T18:08:49.800Z,49.3
2018-06-11T18:10:49.993Z,47.7
2018-06-11T18:12:50.129Z,47.7
2018-06-11T18:14:50.256Z,49.2
2018-06-11T18:16:50.489Z,49.2
2018-06-11T18:18:49.654Z,46.6
2018-06-11T18:20:49.789Z,46.6
2018-06-11T18:22:49.902Z,46.9
2018-06-11T18:24:49.977Z,48.0
2018-06-11T18:26:49.737Z,48.2
2018-06-11T18:28:49.909Z,52.7
2018-06-11T18:30:50.080Z,52.7
2018-06-11T18:32:50.204Z,53.0
2018-06-11T18:34:49.609Z,52.3
2018-06-11T18:36:49.844Z,50.4
2018-06-11T18:38:49.979Z,53.8
2018-06-11T18:40:50.136Z,53.8
2018-06-11T18:42:50.246Z,54.6
2018-06-11T18:44:50.384Z,58.5
2018-06-11T18:46:49.662Z,56.9
2018-06-11T18:48:49.812Z,56.9
2018-06-11T18:50:50.003Z,59.2
2018-06-11T18:52:50.176Z,58.9
2018-06-11T18:54:50.285Z,60.7
2018-06-11T18:56:50.475Z,51.8
2018-06-11T18:58:49.585Z,51.8
2018-06-11T19:00:49.717Z,50.2
2018-06-11T19:02:50.046Z,48.2
2018-06-11T19:04:50.476Z,48.2
2018-06-11T19:06:50.219Z,41.3
2018-06-11T19:08:50.320Z,41.3
2018-06-11T19:10:50.426Z,45.4
2018-06-11T19:12:49.581Z,37.2
2018-06-11T19:14:49.744Z,39.6
2018-06-11T19:16:50.038Z,40.2
2018-06-11T19:18:50.402Z,40.2
2018-06-11T19:20:50.048Z,40.2
2018-06-11T19:22:50.234Z,40.4
2018-06-11T19:24:50.334Z,40.4
2018-06-11T19:26:49.558Z,30.7
2018-06-11T19:28:49.683Z,25.0
2018-06-11T19:30:49.806Z,30.4
2018-06-11T19:32:49.907Z,25.9
2018-06-11T19:34:50.462Z,25.9
2018-06-11T19:36:49.707Z,25.0
2018-06-11T19:38:49.823Z,22.3
2018-06-11T19:40:50.155Z,21.9
2018-06-11T19:42:49.944Z,23.5
2018-06-11T19:44:50.108Z,23.5
2018-06-11T19:46:50.355Z,23.5
2018-06-11T19:48:50.459Z,22.4
2018-06-11T19:50:49.737Z,22.1
2018-06-11T19:52:50.267Z,19.7
2018-06-11T19:54:50.390Z,19.4
2018-06-11T19:56:49.665Z,19.0
2018-06-11T19:58:49.841Z,19.0
2018-06-11T20:00:50.089Z,18.1
2018-06-11T20:02:50.337Z,14.4
2018-06-11T20:04:49.969Z,13.9
2018-06-11T20:06:50.235Z,13.9
2018-06-11T20:08:50.437Z,16.7
2018-06-11T20:10:50.170Z,16.5
2018-06-11T20:12:50.365Z,17.4
2018-06-11T20:14:50.484Z,21.8
2018-06-11T20:16:49.857Z,21.8
2018-06-11T20:18:50.030Z,19.4
2018-06-11T20:20:50.190Z,18.2
2018-06-11T20:22:50.446Z,18.2
2018-06-11T20:24:49.595Z,18.2
2018-06-11T20:26:49.897Z,23.7
2018-06-11T20:28:50.023Z,24.9
2018-06-11T20:30:50.154Z,21.1
2018-06-11T20:32:50.369Z,21.1
2018-06-11T20:34:49.819Z,21.1
2018-06-11T20:36:49.521Z,21.1
2018-06-11T20:38:49.696Z,19.6
2018-06-11T20:40:49.785Z,15.5
2018-06-11T20:42:49.931Z,15.0
2018-06-11T20:44:50.045Z,16.7
2018-06-11T20:46:50.254Z,16.7
2018-06-11T20:48:50.375Z,13.3
2018-06-11T20:50:50.500Z,13.3
2018-06-11T20:52:49.596Z,15.3
2018-06-11T20:54:49.751Z,15.3
2018-06-11T20:56:50.045Z,15.7
2018-06-11T20:58:50.353Z,19.4
2018-06-11T21:00:49.557Z,19.6
2018-06-11T21:02:49.828Z,20.7
2018-06-11T21:04:50.162Z,20.7
2018-06-11T21:06:50.510Z,20.9
2018-06-11T21:08:49.622Z,22.4
2018-06-11T21:10:49.695Z,21.1
2018-06-11T21:12:49.847Z,24.8
2018-06-11T21:14:50.022Z,24.8
2018-06-11T21:16:50.365Z,23.6
2018-06-11T21:18:49.537Z,24.5
2018-06-11T21:20:49.612Z,24.5
2018-06-11T21:22:49.781Z,23.6
2018-06-11T21:24:49.919Z,23.6
2018-06-11T21:26:50.225Z,26.1
2018-06-11T21:28:50.399Z,24.7
2018-06-11T21:30:50.517Z,24.2
2018-06-11T21:32:50.471Z,24.2
2018-06-11T21:34:49.756Z,26.2
2018-06-11T21:36:50.089Z,25.4
2018-06-11T21:38:50.186Z,25.1
2018-06-11T21:40:50.227Z,25.1
2018-06-11T21:42:50.348Z,25.9
2018-06-11T21:44:50.479Z,22.2
2018-06-11T21:46:49.632Z,22.4
2018-06-11T21:48:49.943Z,25.4
2018-06-11T21:50:50.075Z,22.8
2018-06-11T21:52:50.211Z,22.8
2018-06-11T21:54:50.358Z,22.2
2018-06-11T21:56:49.666Z,20.3
2018-06-11T21:58:49.811Z,19.4
2018-06-11T22:00:50.000Z,19.4
2018-06-11T22:02:50.197Z,17.5
2018-06-11T22:04:50.601Z,18.2
2018-06-11T22:06:49.943Z,16.5
2018-06-11T22:08:50.120Z,15.5
2018-06-11T22:10:50.368Z,15.5
2018-06-11T22:12:49.690Z,13.5
2018-06-11T22:14:49.896Z,16.0
2018-06-11T22:16:50.193Z,14.0
2018-06-11T22:18:50.370Z,15.5
2018-06-11T22:20:50.535Z,15.5
2018-06-11T22:22:49.741Z,13.4
2018-06-11T22:24:49.882Z,11.7
2018-06-11T22:26:50.234Z,10.9
2018-06-11T22:28:50.371Z,10.4
2018-06-11T22:30:50.492Z,10.4
2018-06-11T22:32:49.684Z,11.4
2018-06-11T22:34:50.180Z,10.7
2018-06-11T22:36:50.474Z,11.6
2018-06-11T22:38:49.585Z,11.6
2018-06-11T22:40:49.712Z,12.1
2018-06-11T22:42:49.830Z,10.6
2018-06-11T22:44:49.978Z,10.9
2018-06-11T22:46:50.345Z,10.9
2018-06-11T22:48:50.467Z,11.3
2018-06-11T22:50:49.581Z,11.3
2018-06-11T22:52:49.702Z,11.6
2018-06-11T22:54:49.811Z,11.7
2018-06-11T22:56:50.143Z,11.7
2018-06-11T22:58:50.339Z,13.4
2018-06-11T23:00:50.450Z,12.1
2018-06-11T23:02:49.605Z,12.8
2018-06-11T23:04:49.842Z,12.3
2018-06-11T23:06:50.194Z,12.3
2018-06-11T23:08:50.354Z,13.6
2018-06-11T23:10:50.448Z,13.8
2018-06-11T23:12:49.785Z,14.2
2018-06-11T23:14:49.913Z,15.6
2018-06-11T23:16:50.143Z,15.2
2018-06-11T23:18:50.381Z,15.2
2018-06-11T23:20:50.493Z,16.2
2018-06-11T23:22:49.811Z,17.0
2018-06-11T23:24:50.011Z,18.8
2018-06-11T23:26:50.346Z,18.8
2018-06-11T23:28:50.526Z,20.0
2018-06-11T23:30:49.640Z,19.4
2018-06-11T23:32:49.786Z,20.1
2018-06-11T23:34:50.292Z,21.3
2018-06-11T23:36:49.616Z,21.3
2018-06-11T23:38:49.733Z,23.8
2018-06-11T23:40:49.861Z,23.3
2018-06-11T23:42:50.008Z,22.0
2018-06-11T23:44:50.182Z,24.7
2018-06-11T23:46:49.537Z,24.4
2018-06-11T23:48:49.669Z,24.4
2018-06-11T23:50:49.824Z,27.1
2018-06-11T23:52:50.081Z,26.2
2018-06-11T23:54:50.216Z,26.3
2018-06-11T23:56:49.575Z,26.3
2018-06-11T23:58:49.742Z,26.3
